TAF MPTO
MPTO 072300Z 0800/0906 03008KT 9999 SCT020 TEMPO 0805/0809 00000KT TEMPO 0812/0814 27005KT=
METAR MPTO
MPTO 080400Z VRB02KT 9999 FEW020 25/23 Q1010 NOSIG=
MPTO 080300Z 02003KT 9999 FEW020 26/22 Q1009 NOSIG=
MPTO 080200Z 04005KT 9999 FEW020 26/22 Q1008 NOSIG=
MPTO 080100Z 02007KT 9999 FEW020 27/22 Q1008 NOSIG=
MPTO 072300Z 26011KT 9999 FEW020 29/22 Q1006 NOSIG=
WC MPTO
WS MPTO
ZCZC CCP317 061826 FF MMMXYMYX 061825 MPTOYMYA WSPM31 MPTO 061826 MPZL SIGMET 04 VALID 061826/062050 MPTO- MPZL PANAMA FIR CNL SIGMET 03 061650/062050= NNNN
ZCZC CCP318 061826 FF MMMXYMYX 061826 MPTOYMYA WSPM31 MPTO 061827 MPZL SIGMET A2 VALID 061827/062055 MPTO- MPZL PANAMA FIR CNL SIGMET A1 061655/062055= NNNN
WV MPTO